createdAt,value
2022-10-22T00:02:58.587Z,4.07
2022-10-22T00:06:00.217Z,4.20
2022-10-22T00:09:01.783Z,4.70
2022-10-22T00:12:03.860Z,4.53
2022-10-22T00:15:06.830Z,4.07
2022-10-22T00:18:08.376Z,4.32
2022-10-22T00:21:10.238Z,4.25
2022-10-22T00:24:13.340Z,4.40
2022-10-22T00:27:14.892Z,4.57
2022-10-22T00:30:16.471Z,4.50
2022-10-22T00:33:17.988Z,4.43
2022-10-22T00:36:19.545Z,4.20
2022-10-22T00:39:22.946Z,4.40
2022-10-22T00:42:26.757Z,4.60
2022-10-22T00:45:28.814Z,4.55
2022-10-22T00:48:33.222Z,4.13
2022-10-22T00:51:35.952Z,4.47
2022-10-22T00:54:38.478Z,4.40
2022-10-22T00:57:41.008Z,4.72
2022-10-22T01:00:43.204Z,3.90
2022-10-22T01:03:44.884Z,4.65
2022-10-22T01:06:47.434Z,4.53
2022-10-22T01:10:00.309Z,4.40
2022-10-22T01:13:26.724Z,4.53
2022-10-22T01:16:37.570Z,4.65
2022-10-22T01:20:06.243Z,4.97
2022-10-22T01:23:34.204Z,4.25
2022-10-22T01:27:07.231Z,4.95
2022-10-22T01:30:12.367Z,3.95
2022-10-22T01:33:17.636Z,4.82
2022-10-22T01:36:19.739Z,4.85
2022-10-22T01:39:23.979Z,4.68
2022-10-22T01:42:25.546Z,4.90
2022-10-22T01:45:29.914Z,4.68
2022-10-22T01:48:57.689Z,4.75
2022-10-22T01:52:26.895Z,5.32
2022-10-22T01:55:53.107Z,4.93
2022-10-22T01:59:26.637Z,5.03
2022-10-22T02:02:36.350Z,5.70
2022-10-22T02:05:48.947Z,6.30
2022-10-22T02:08:52.648Z,4.97
2022-10-22T02:11:55.614Z,5.72
2022-10-22T02:14:58.262Z,4.97
2022-10-22T02:18:01.099Z,5.32
2022-10-22T02:21:03.142Z,5.40
2022-10-22T02:24:05.496Z,4.95
2022-10-22T02:27:12.623Z,4.45
2022-10-22T02:33:30.688Z,5.45
2022-10-22T02:36:32.692Z,6.03
2022-10-22T02:39:35.811Z,5.25
2022-10-22T02:42:40.640Z,5.43
2022-10-22T02:45:42.394Z,5.47
2022-10-22T02:48:43.923Z,4.70
2022-10-22T02:51:45.563Z,4.60
2022-10-22T02:54:47.081Z,5.35
2022-10-22T02:57:48.610Z,5.35
2022-10-22T03:00:50.179Z,4.53
2022-10-22T03:03:51.848Z,5.57
2022-10-22T03:06:53.412Z,5.53
2022-10-22T03:09:54.939Z,5.82
2022-10-22T03:12:56.627Z,5.90
2022-10-22T03:15:58.173Z,6.03
2022-10-22T03:19:01.766Z,6.45
2022-10-22T03:22:07.236Z,6.40
2022-10-22T03:25:13.776Z,5.65
2022-10-22T03:28:17.076Z,6.50
2022-10-22T03:31:18.626Z,6.40
2022-10-22T03:34:20.800Z,7.35
2022-10-22T03:37:24.043Z,6.75
2022-10-22T03:40:25.595Z,6.65
2022-10-22T03:43:27.763Z,7.10
2022-10-22T03:46:29.267Z,6.75
2022-10-22T03:49:30.856Z,7.18
2022-10-22T03:52:37.471Z,6.78
2022-10-22T03:55:41.045Z,6.32
2022-10-22T03:58:42.699Z,5.45
2022-10-22T04:01:44.205Z,6.60
2022-10-22T04:04:45.731Z,7.10
2022-10-22T04:07:47.435Z,6.30
2022-10-22T04:10:52.244Z,6.20
2022-10-22T04:13:53.798Z,5.38
2022-10-22T04:16:55.575Z,6.40
2022-10-22T04:19:57.102Z,6.18
2022-10-22T04:22:58.645Z,5.88
2022-10-22T04:26:02.085Z,6.20
2022-10-22T04:29:03.746Z,6.32
2022-10-22T04:32:05.472Z,6.90
2022-10-22T04:35:07.608Z,6.57
2022-10-22T04:38:09.398Z,7.40
2022-10-22T04:41:17.952Z,6.80
2022-10-22T04:44:19.500Z,6.28
2022-10-22T04:47:21.299Z,6.55
2022-10-22T04:50:23.179Z,6.65
2022-10-22T04:53:24.734Z,7.45
2022-10-22T04:56:31.528Z,7.13
2022-10-22T04:59:33.063Z,6.32
2022-10-22T05:02:34.737Z,7.00
2022-10-22T05:05:36.294Z,6.80
2022-10-22T05:08:38.219Z,6.88
2022-10-22T05:11:41.896Z,7.15
2022-10-22T05:14:44.774Z,7.18
2022-10-22T05:17:46.587Z,7.00
2022-10-22T05:20:48.238Z,7.07
2022-10-22T05:23:50.637Z,14.52
2022-10-22T05:26:57.108Z,6.93
2022-10-22T05:29:58.860Z,6.80
2022-10-22T05:33:00.391Z,6.35
2022-10-22T05:36:03.042Z,6.45
2022-10-22T05:39:05.099Z,6.32
2022-10-22T05:42:06.684Z,6.05
2022-10-22T05:45:08.873Z,6.15
2022-10-22T05:48:10.405Z,6.28
2022-10-22T05:51:13.855Z,6.38
2022-10-22T05:54:20.499Z,6.13
2022-10-22T05:57:22.099Z,6.97
2022-10-22T06:00:23.673Z,6.38
2022-10-22T06:03:25.854Z,6.82
2022-10-22T06:06:33.924Z,6.50
2022-10-22T06:12:39.171Z,7.10
2022-10-22T06:15:40.893Z,6.97
2022-10-22T06:18:42.436Z,6.45
2022-10-22T06:21:44.463Z,7.82
2022-10-22T06:24:45.987Z,7.10
2022-10-22T06:27:51.680Z,7.07
2022-10-22T06:30:53.244Z,7.10
2022-10-22T06:33:56.533Z,7.20
2022-10-22T06:36:58.103Z,7.63
2022-10-22T06:39:59.790Z,6.78
2022-10-22T06:43:01.406Z,6.60
2022-10-22T06:46:07.098Z,6.07
2022-10-22T06:49:13.435Z,5.97
2022-10-22T06:52:14.996Z,4.82
2022-10-22T06:55:16.626Z,5.38
2022-10-22T06:58:18.247Z,5.43
2022-10-22T07:01:22.986Z,5.07
2022-10-22T07:04:24.664Z,4.78
2022-10-22T07:07:26.190Z,4.15
2022-10-22T07:10:30.010Z,4.57
2022-10-22T07:13:32.486Z,4.00
2022-10-22T07:16:34.264Z,3.97
2022-10-22T07:19:36.213Z,4.88
2022-10-22T07:22:37.832Z,3.95
2022-10-22T07:25:39.401Z,4.88
2022-10-22T07:28:41.144Z,4.85
2022-10-22T07:31:42.834Z,5.00
2022-10-22T07:34:44.356Z,4.45
2022-10-22T07:37:45.860Z,4.22
2022-10-22T07:40:47.437Z,4.13
2022-10-22T07:43:49.225Z,4.07
2022-10-22T07:46:50.788Z,3.75
2022-10-22T07:49:52.517Z,3.72
2022-10-22T07:52:56.134Z,3.25
2022-10-22T07:55:59.706Z,3.38
2022-10-22T08:02:03.767Z,3.53
2022-10-22T08:05:05.897Z,3.50
2022-10-22T08:08:07.749Z,3.75
2022-10-22T08:11:10.032Z,3.08
2022-10-22T08:14:11.726Z,3.30
2022-10-22T08:17:13.280Z,3.65
2022-10-22T08:20:14.878Z,4.10
2022-10-22T08:23:16.456Z,3.10
2022-10-22T08:26:18.199Z,3.30
2022-10-22T08:29:21.523Z,3.75
2022-10-22T08:32:23.267Z,3.80
2022-10-22T08:35:24.910Z,3.38
2022-10-22T08:38:26.510Z,3.35
2022-10-22T08:41:28.080Z,3.35
2022-10-22T08:44:35.672Z,3.80
2022-10-22T08:48:05.105Z,3.40
2022-10-22T08:51:19.236Z,3.88
2022-10-22T08:54:41.987Z,3.33
2022-10-22T08:57:59.502Z,3.30
2022-10-22T09:01:09.344Z,2.97
2022-10-22T09:04:14.470Z,3.08
2022-10-22T09:07:16.075Z,3.17
2022-10-22T09:10:21.612Z,3.13
2022-10-22T09:13:24.106Z,3.20
2022-10-22T09:16:44.207Z,3.53
2022-10-22T09:20:02.708Z,3.30
2022-10-22T09:23:14.716Z,3.65
2022-10-22T09:26:17.150Z,3.40
2022-10-22T09:29:24.376Z,3.20
2022-10-22T09:32:26.325Z,3.13
2022-10-22T09:35:28.359Z,2.80
2022-10-22T09:38:33.076Z,2.80
2022-10-22T09:41:34.606Z,3.00
2022-10-22T09:44:37.940Z,2.55
2022-10-22T09:47:43.306Z,2.70
2022-10-22T09:50:54.737Z,2.95
2022-10-22T09:54:02.031Z,3.13
2022-10-22T09:57:17.397Z,2.90
2022-10-22T10:00:19.927Z,3.00
2022-10-22T10:03:32.069Z,2.80
2022-10-22T10:06:35.245Z,2.25
2022-10-22T10:09:36.814Z,2.63
2022-10-22T10:12:57.083Z,2.35
2022-10-22T10:16:12.927Z,2.97
2022-10-22T10:19:36.765Z,2.70
2022-10-22T10:23:06.127Z,3.17
2022-10-22T10:26:38.714Z,2.50
2022-10-22T10:29:52.231Z,2.40
2022-10-22T10:33:13.015Z,2.40
2022-10-22T10:36:33.105Z,2.00
2022-10-22T10:39:37.608Z,2.42
2022-10-22T10:42:49.252Z,2.40
2022-10-22T10:46:08.797Z,2.40
2022-10-22T10:49:19.975Z,2.13
2022-10-22T10:52:31.686Z,2.58
2022-10-22T10:55:41.828Z,2.15
2022-10-22T10:58:46.118Z,2.50
2022-10-22T11:02:11.456Z,2.38
2022-10-22T11:05:35.803Z,1.90
2022-10-22T11:08:45.808Z,1.83
2022-10-22T11:12:08.974Z,2.10
2022-10-22T11:15:32.371Z,1.60
2022-10-22T11:19:04.214Z,1.90
2022-10-22T11:22:28.599Z,2.22
2022-10-22T11:25:44.898Z,1.90
2022-10-22T11:28:53.122Z,1.90
2022-10-22T11:31:56.347Z,1.77
2022-10-22T11:35:04.730Z,2.55
2022-10-22T11:38:10.116Z,1.75
2022-10-22T11:41:17.898Z,1.45
2022-10-22T11:44:25.496Z,1.90
2022-10-22T11:47:51.454Z,1.80
2022-10-22T11:51:01.883Z,1.40
2022-10-22T11:54:26.035Z,2.25
2022-10-22T11:57:40.184Z,1.70
2022-10-22T12:00:50.768Z,1.70
2022-10-22T12:03:58.298Z,1.60
2022-10-22T12:07:01.916Z,1.67
2022-10-22T12:10:18.468Z,1.70
2022-10-22T12:13:52.623Z,2.13
2022-10-22T12:17:02.768Z,1.67
2022-10-22T12:20:14.406Z,1.80
2022-10-22T12:23:16.012Z,1.60
2022-10-22T12:29:33.225Z,2.15
2022-10-22T12:32:38.388Z,1.90
2022-10-22T12:35:45.722Z,2.10
2022-10-22T12:38:47.797Z,2.00
2022-10-22T12:41:49.732Z,1.70
2022-10-22T12:44:56.504Z,1.80
2022-10-22T12:48:00.946Z,1.98
2022-10-22T12:51:07.925Z,1.95
2022-10-22T12:54:28.096Z,1.80
2022-10-22T12:57:29.749Z,1.75
2022-10-22T13:00:35.529Z,1.95
2022-10-22T13:03:41.943Z,1.70
2022-10-22T13:06:51.999Z,1.40
2022-10-22T13:09:56.392Z,1.55
2022-10-22T13:12:58.814Z,1.60
2022-10-22T13:16:18.862Z,1.92
2022-10-22T13:19:40.662Z,1.67
2022-10-22T13:23:02.645Z,1.95
2022-10-22T13:26:13.836Z,1.75
2022-10-22T13:29:19.306Z,1.70
2022-10-22T13:32:34.363Z,2.15
2022-10-22T13:35:38.134Z,1.60
2022-10-22T13:38:39.771Z,1.75
2022-10-22T13:41:41.593Z,1.75
2022-10-22T13:44:43.096Z,2.20
2022-10-22T13:47:54.669Z,4.60
2022-10-22T13:50:56.390Z,2.50
2022-10-22T13:53:58.105Z,1.80
2022-10-22T13:56:59.594Z,1.90
2022-10-22T14:00:01.402Z,1.80
2022-10-22T14:03:06.788Z,1.50
2022-10-22T14:06:14.604Z,1.80
2022-10-22T14:09:16.918Z,1.60
2022-10-22T14:12:18.681Z,1.90
2022-10-22T14:15:23.984Z,1.40
2022-10-22T14:18:28.929Z,1.67
2022-10-22T14:21:34.592Z,1.52
2022-10-22T14:24:36.268Z,1.67
2022-10-22T14:27:38.444Z,7.32
2022-10-22T14:30:40.989Z,4.30
2022-10-22T14:33:42.577Z,1.80
2022-10-22T14:36:44.560Z,2.00
2022-10-22T14:39:54.108Z,1.67
2022-10-22T14:42:55.750Z,1.60
2022-10-22T14:45:57.801Z,2.00
2022-10-22T14:48:59.383Z,1.90
2022-10-22T14:52:00.988Z,3.20
2022-10-22T14:55:02.932Z,2.47
2022-10-22T14:58:04.591Z,1.70
2022-10-22T15:01:06.906Z,2.75
2022-10-22T15:04:08.917Z,1.48
2022-10-22T15:07:11.474Z,1.98
2022-10-22T15:10:14.786Z,1.90
2022-10-22T15:13:16.328Z,1.70
2022-10-22T15:16:18.364Z,1.58
2022-10-22T15:19:19.889Z,2.20
2022-10-22T15:22:21.900Z,2.20
2022-10-22T15:25:23.737Z,1.77
2022-10-22T15:28:25.948Z,1.60
2022-10-22T15:31:50.638Z,1.90
2022-10-22T15:34:56.107Z,2.00
2022-10-22T15:37:57.687Z,2.05
2022-10-22T15:41:05.532Z,1.65
2022-10-22T15:44:08.649Z,2.50
2022-10-22T15:47:10.394Z,2.75
2022-10-22T15:50:11.965Z,1.92
2022-10-22T15:53:13.632Z,1.70
2022-10-22T15:56:15.133Z,2.17
2022-10-22T15:59:17.726Z,2.33
2022-10-22T16:02:19.264Z,2.58
2022-10-22T16:05:21.138Z,2.60
2022-10-22T16:08:23.521Z,2.67
2022-10-22T16:11:26.077Z,2.75
2022-10-22T16:14:28.859Z,2.58
2022-10-22T16:17:30.384Z,2.67
2022-10-22T16:20:56.368Z,7.35
2022-10-22T16:24:05.916Z,2.88
2022-10-22T16:27:09.177Z,3.63
2022-10-22T16:30:11.380Z,2.85
2022-10-22T16:33:14.122Z,3.08
2022-10-22T16:40:15.820Z,4.33
2022-10-22T16:43:17.881Z,4.47
2022-10-22T16:46:22.433Z,4.00
2022-10-22T16:49:24.316Z,3.75
2022-10-22T16:52:26.112Z,3.88
2022-10-22T16:55:27.877Z,2.92
2022-10-22T16:58:29.626Z,3.33
2022-10-22T17:01:31.329Z,3.58
2022-10-22T17:04:34.608Z,3.60
2022-10-22T17:07:36.401Z,3.97
2022-10-22T17:10:39.294Z,4.22
2022-10-22T17:13:41.899Z,3.40
2022-10-22T17:16:44.829Z,3.92
2022-10-22T17:19:46.643Z,4.13
2022-10-22T17:22:49.686Z,7.15
2022-10-22T17:25:58.629Z,3.63
2022-10-22T17:29:00.735Z,4.35
2022-10-22T17:32:02.471Z,4.38
2022-10-22T17:35:05.230Z,4.10
2022-10-22T17:38:07.416Z,4.57
2022-10-22T17:41:14.597Z,4.20
2022-10-22T17:44:17.098Z,4.50
2022-10-22T17:47:18.701Z,4.38
2022-10-22T17:50:20.417Z,4.55
2022-10-22T17:53:22.118Z,4.55
2022-10-22T17:56:26.325Z,3.83
2022-10-22T17:59:27.971Z,4.68
2022-10-22T18:02:32.524Z,4.32
2022-10-22T18:05:34.178Z,3.85
2022-10-22T18:08:45.210Z,4.07
2022-10-22T18:11:55.762Z,4.55
2022-10-22T18:14:57.485Z,4.60
2022-10-22T18:17:59.591Z,4.32
2022-10-22T18:21:01.640Z,3.88
2022-10-22T18:24:03.256Z,4.18
2022-10-22T18:27:05.306Z,4.10
2022-10-22T18:30:07.467Z,5.30
2022-10-22T18:33:12.342Z,5.00
2022-10-22T18:36:20.816Z,4.35
2022-10-22T18:39:22.510Z,4.53
2022-10-22T18:42:25.480Z,4.45
2022-10-22T18:45:29.200Z,3.78
2022-10-22T18:48:30.704Z,3.70
2022-10-22T18:51:34.434Z,3.75
2022-10-22T18:54:36.003Z,3.42
2022-10-22T18:57:37.560Z,3.40
2022-10-22T19:00:39.407Z,4.55
2022-10-22T19:03:41.349Z,3.88
2022-10-22T19:06:45.599Z,3.50
2022-10-22T19:09:47.632Z,3.35
2022-10-22T19:12:49.165Z,4.00
2022-10-22T19:15:51.202Z,3.90
2022-10-22T19:19:04.802Z,3.40
2022-10-22T19:22:08.977Z,3.88
2022-10-22T19:25:12.122Z,3.80
2022-10-22T19:28:13.798Z,24.38
2022-10-22T19:31:21.767Z,6.88
2022-10-22T19:34:23.326Z,3.97
2022-10-22T19:37:26.088Z,4.93
2022-10-22T19:40:28.272Z,4.82
2022-10-22T19:43:29.812Z,5.00
2022-10-22T19:46:32.513Z,4.35
2022-10-22T19:49:34.192Z,4.55
2022-10-22T19:52:39.058Z,5.38
2022-10-22T19:55:45.226Z,4.45
2022-10-22T19:58:47.703Z,3.90
2022-10-22T20:01:49.437Z,4.60
2022-10-22T20:04:50.967Z,4.82
2022-10-22T20:07:57.212Z,4.68
2022-10-22T20:11:03.600Z,4.68
2022-10-22T20:14:05.120Z,5.00
2022-10-22T20:17:06.948Z,4.82
2022-10-22T20:20:08.667Z,5.28
2022-10-22T20:23:12.709Z,5.72
2022-10-22T20:26:14.268Z,5.47
2022-10-22T20:29:16.292Z,5.70
2022-10-22T20:32:17.880Z,4.60
2022-10-22T20:35:19.425Z,5.57
2022-10-22T20:38:20.987Z,7.97
2022-10-22T20:41:23.213Z,5.40
2022-10-22T20:44:24.759Z,5.05
2022-10-22T20:47:39.230Z,5.18
2022-10-22T20:50:50.925Z,4.60
2022-10-22T20:53:52.548Z,5.05
2022-10-22T20:56:54.169Z,4.95
2022-10-22T20:59:57.292Z,4.55
2022-10-22T21:03:01.770Z,4.60
2022-10-22T21:06:04.565Z,5.30
2022-10-22T21:09:08.152Z,4.60
2022-10-22T21:12:09.991Z,4.47
2022-10-22T21:15:12.789Z,5.00
2022-10-22T21:18:14.520Z,5.60
2022-10-22T21:21:19.902Z,4.68
2022-10-22T21:24:24.659Z,3.83
2022-10-22T21:27:26.343Z,5.65
2022-10-22T21:30:27.901Z,4.07
2022-10-22T21:33:29.655Z,3.80
2022-10-22T21:36:31.208Z,3.92
2022-10-22T21:39:32.787Z,3.60
2022-10-22T21:42:34.327Z,3.55
2022-10-22T21:48:42.736Z,3.42
2022-10-22T21:51:44.547Z,3.72
2022-10-22T21:54:46.152Z,3.63
2022-10-22T21:57:47.677Z,3.95
2022-10-22T22:00:54.376Z,3.58
2022-10-22T22:03:55.959Z,3.33
2022-10-22T22:06:57.480Z,3.38
2022-10-22T22:09:59.019Z,3.58
2022-10-22T22:13:00.528Z,3.53
2022-10-22T22:16:05.323Z,3.35
2022-10-22T22:19:08.760Z,3.50
2022-10-22T22:22:10.317Z,3.13
2022-10-22T22:25:11.808Z,3.38
2022-10-22T22:28:13.344Z,4.47
2022-10-22T22:31:17.516Z,3.30
2022-10-22T22:34:19.106Z,2.95
2022-10-22T22:37:20.633Z,3.25
2022-10-22T22:40:22.180Z,3.45
2022-10-22T22:43:23.777Z,3.03
2022-10-22T22:46:25.602Z,2.90
2022-10-22T22:49:27.194Z,3.22
2022-10-22T22:52:28.721Z,2.67
2022-10-22T22:55:31.845Z,2.97
2022-10-22T22:58:33.803Z,3.05
2022-10-22T23:01:37.968Z,2.92
2022-10-22T23:04:39.627Z,3.08
2022-10-22T23:07:41.139Z,3.45
2022-10-22T23:10:42.656Z,3.40
2022-10-22T23:13:44.207Z,2.90
2022-10-22T23:16:48.216Z,3.20
2022-10-22T23:19:49.941Z,3.20
2022-10-22T23:22:51.458Z,3.15
2022-10-22T23:25:55.317Z,3.10
2022-10-22T23:29:03.977Z,3.50
2022-10-22T23:32:11.492Z,3.72
2022-10-22T23:35:13.040Z,5.90
2022-10-22T23:38:14.598Z,3.88
2022-10-22T23:41:17.135Z,4.03
2022-10-22T23:44:18.831Z,3.05
2022-10-22T23:47:20.376Z,3.38
2022-10-22T23:50:21.957Z,3.22
2022-10-22T23:53:23.630Z,3.15
2022-10-22T23:56:25.763Z,3.10
2022-10-22T23:59:27.371Z,3.38
